Hlavní strana
METAR-TAF:

METAR-TAF

Letiště :

Yao, Japonsko

zeměpisná šířka: 34-36N, zeměpisná délka: 135-36E, výška: 10 m

Aktuální stav počasí

Zpráva byla vytvořena před 38 minutami, v 07:00 UTC
Severoseverozápadní vítr 10 kt, proměnlivý mezi západoseverozápadním a severním
Teplota 15°C
Vlhkost vzduchu 39%
Tlak 1018 hPa
Viditelnost 10 km a více
Skoro jasno ve výšce 3500 ft
Polojasno ve výšce 6000 ft

METAR: RJOY 020700Z 33010KT 300V010 9999 FEW035 SCT060 15/01 Q1018

Čas: 16:38 (07:38 UTC)


TAF: chybějící

Stav a předpovědi počasí z více než 4 000 letišť (zprávy METAR a TAF).

Červené a žluté tečky na mapě představují dostupné meteorologické stanice.

Když kurzor umístíte na tečku, zobrazí se název stanice.

Pak kliknutím zobrazíte stav a předpověď počasí.

Chcete-li změnit mapu, kliknutím na zelené tlačítko se znaménkem +mapu přiblížíte, kliknutím na zelené tlačítko se znaménkem – mapu oddálíte a kliknutím na zelené šipky přejdete na sousední mapy.


METAR-TAF: